createdAt,value
2022-11-07T00:01:40.457Z,97.33
2022-11-07T00:04:07.940Z,97.12
2022-11-07T00:06:37.309Z,97.05
2022-11-07T00:09:06.842Z,97.42
2022-11-07T00:11:34.575Z,97.66
2022-11-07T00:14:02.019Z,97.32
2022-11-07T00:16:29.477Z,97.19
2022-11-07T00:18:57.109Z,96.88
2022-11-07T00:21:24.863Z,96.46
2022-11-07T00:23:52.301Z,96.63
2022-11-07T00:26:21.077Z,96.26
2022-11-07T00:28:48.518Z,96.32
2022-11-07T00:31:16.966Z,96.32
2022-11-07T00:33:45.367Z,95.88
2022-11-07T00:36:18.648Z,96.29
2022-11-07T00:38:46.267Z,96.28
2022-11-07T00:41:13.876Z,96.12
2022-11-07T00:43:42.711Z,95.92
2022-11-07T00:46:12.159Z,95.91
2022-11-07T00:48:39.859Z,95.99
2022-11-07T00:51:08.102Z,96.14
2022-11-07T00:53:35.881Z,96.09
2022-11-07T00:56:03.639Z,96.27
2022-11-07T00:58:31.623Z,96.24
2022-11-07T01:01:01.072Z,96.01
2022-11-07T01:03:45.974Z,96.13
2022-11-07T01:06:13.442Z,96.05
2022-11-07T01:08:40.903Z,95.61
2022-11-07T01:11:08.554Z,95.63
2022-11-07T01:13:36.719Z,95.47
2022-11-07T01:16:09.128Z,95.25
2022-11-07T01:18:36.650Z,95.30
2022-11-07T01:21:05.416Z,95.43
2022-11-07T01:23:32.956Z,95.48
2022-11-07T01:26:05.403Z,94.54
2022-11-07T01:28:33.159Z,94.37
2022-11-07T01:31:05.607Z,94.35
2022-11-07T01:33:33.981Z,94.62
2022-11-07T01:36:05.902Z,94.94
2022-11-07T01:38:33.733Z,94.63
2022-11-07T01:41:18.974Z,93.95
2022-11-07T01:43:48.792Z,94.16
2022-11-07T01:46:18.861Z,94.30
2022-11-07T01:48:50.707Z,94.10
2022-11-07T01:51:20.258Z,93.97
2022-11-07T01:53:49.073Z,94.07
2022-11-07T01:56:20.019Z,93.98
2022-11-07T01:58:48.487Z,94.33
2022-11-07T02:01:18.232Z,94.05
2022-11-07T02:03:47.844Z,93.91
2022-11-07T02:06:20.723Z,93.29
2022-11-07T02:08:49.854Z,93.17
2022-11-07T02:11:18.481Z,93.20
2022-11-07T02:13:46.142Z,92.92
2022-11-07T02:16:13.704Z,93.29
2022-11-07T02:18:44.511Z,93.38
2022-11-07T02:21:19.281Z,93.46
2022-11-07T02:23:55.516Z,93.62
2022-11-07T02:26:26.357Z,93.38
2022-11-07T02:28:56.221Z,93.72
2022-11-07T02:31:24.420Z,93.38
2022-11-07T02:33:52.137Z,93.53
2022-11-07T02:36:22.646Z,93.49
2022-11-07T02:38:57.177Z,93.65
2022-11-07T02:41:29.883Z,94.03
2022-11-07T02:44:02.709Z,93.89
2022-11-07T02:46:32.103Z,94.11
2022-11-07T02:49:01.937Z,94.05
2022-11-07T02:51:30.174Z,94.04
2022-11-07T02:53:57.962Z,94.18
2022-11-07T02:56:27.237Z,94.28
2022-11-07T02:58:54.693Z,94.27
2022-11-07T03:01:23.066Z,94.35
2022-11-07T03:03:51.861Z,94.28
2022-11-07T03:06:22.028Z,94.23
2022-11-07T03:08:49.949Z,94.15
2022-11-07T03:11:20.791Z,94.10
2022-11-07T03:13:51.217Z,93.65
2022-11-07T03:16:20.106Z,93.53
2022-11-07T03:18:47.865Z,93.19
2022-11-07T03:21:15.759Z,93.28
2022-11-07T03:23:43.182Z,92.51
2022-11-07T03:26:10.640Z,92.34
2022-11-07T03:28:38.111Z,92.45
2022-11-07T03:31:06.967Z,92.12
2022-11-07T03:33:34.383Z,92.07
2022-11-07T03:36:01.802Z,91.01
2022-11-07T03:38:29.250Z,91.68
2022-11-07T03:40:56.699Z,90.85
2022-11-07T03:43:24.147Z,90.43
2022-11-07T03:45:51.572Z,90.25
2022-11-07T03:48:20.329Z,90.31
2022-11-07T03:50:47.771Z,90.44
2022-11-07T03:53:19.314Z,90.76
2022-11-07T03:55:50.628Z,90.40
2022-11-07T03:58:18.032Z,90.55
2022-11-07T04:00:45.429Z,90.50
2022-11-07T04:03:13.147Z,90.49
2022-11-07T04:05:42.346Z,90.93
2022-11-07T04:08:09.882Z,90.88
2022-11-07T04:10:37.300Z,90.98
2022-11-07T04:13:22.346Z,90.92
2022-11-07T04:16:09.140Z,90.77
2022-11-07T04:18:38.789Z,90.89
2022-11-07T04:21:07.655Z,90.74
2022-11-07T04:23:35.113Z,90.38
2022-11-07T04:26:20.199Z,90.03
2022-11-07T04:28:47.616Z,89.74
2022-11-07T04:31:15.081Z,89.62
2022-11-07T04:33:42.505Z,89.48
2022-11-07T04:36:11.354Z,89.87
2022-11-07T04:38:38.784Z,89.91
2022-11-07T04:41:06.575Z,90.13
2022-11-07T04:43:34.002Z,90.15
2022-11-07T04:46:01.422Z,90.14
2022-11-07T04:48:28.837Z,89.83
2022-11-07T04:50:59.148Z,90.18
2022-11-07T04:53:27.909Z,90.59
2022-11-07T04:55:58.188Z,90.88
2022-11-07T04:58:25.654Z,90.90
2022-11-07T05:00:53.069Z,90.77
2022-11-07T05:03:20.534Z,91.04
2022-11-07T05:05:48.030Z,91.39
2022-11-07T05:08:15.445Z,91.00
2022-11-07T05:10:44.229Z,90.57
2022-11-07T05:13:11.847Z,90.25
2022-11-07T05:15:39.809Z,90.29
2022-11-07T05:18:07.553Z,89.71
2022-11-07T05:20:36.471Z,89.83
2022-11-07T05:23:13.290Z,89.69
2022-11-07T05:25:42.219Z,89.83
2022-11-07T05:28:11.599Z,89.93
2022-11-07T05:30:40.792Z,90.62
2022-11-07T05:33:08.395Z,90.53
2022-11-07T05:35:36.246Z,90.73
2022-11-07T05:38:04.235Z,91.28
2022-11-07T05:40:31.904Z,91.55
2022-11-07T05:43:02.997Z,91.70
2022-11-07T05:45:33.297Z,92.12
2022-11-07T05:48:01.761Z,91.77
2022-11-07T05:50:30.226Z,91.70
2022-11-07T05:52:58.024Z,91.66
2022-11-07T05:55:26.448Z,91.75
2022-11-07T05:57:53.943Z,91.40
2022-11-07T06:00:21.623Z,91.69
2022-11-07T06:02:56.793Z,91.60
2022-11-07T06:05:24.597Z,91.51
2022-11-07T06:07:52.102Z,91.73
2022-11-07T06:10:19.939Z,91.50
2022-11-07T06:12:49.477Z,92.05
2022-11-07T06:15:19.955Z,92.20
2022-11-07T06:17:47.375Z,92.52
2022-11-07T06:20:16.364Z,92.55
2022-11-07T06:22:43.773Z,92.64
2022-11-07T06:25:11.248Z,92.95
2022-11-07T06:27:38.718Z,93.48
2022-11-07T06:30:07.476Z,94.01
2022-11-07T06:32:36.483Z,94.77
2022-11-07T06:35:04.058Z,95.45
2022-11-07T06:37:32.798Z,95.19
2022-11-07T06:40:00.227Z,95.00
2022-11-07T06:42:27.695Z,94.68
2022-11-07T06:44:55.141Z,94.97
2022-11-07T06:47:22.574Z,95.07
2022-11-07T06:49:50.034Z,95.67
2022-11-07T06:52:17.749Z,96.20
2022-11-07T06:54:46.493Z,96.11
2022-11-07T06:57:13.944Z,96.52
2022-11-07T06:59:41.454Z,96.36
2022-11-07T07:02:13.710Z,96.38
2022-11-07T07:04:49.602Z,96.22
2022-11-07T07:07:17.066Z,96.75
2022-11-07T07:09:46.259Z,97.14
2022-11-07T07:12:13.717Z,97.69
2022-11-07T07:14:41.150Z,97.57
2022-11-07T07:17:09.627Z,97.97
2022-11-07T07:19:37.423Z,98.17
2022-11-07T07:22:04.861Z,98.85
2022-11-07T07:24:32.265Z,99.09
2022-11-07T07:27:01.023Z,99.28
2022-11-07T07:29:28.431Z,99.53
2022-11-07T07:31:55.841Z,99.94
2022-11-07T07:34:23.304Z,100.00
2022-11-07T07:36:50.720Z,100.00
2022-11-07T07:39:18.132Z,100.00
2022-11-07T07:41:45.882Z,100.00
2022-11-07T07:44:14.654Z,100.00
2022-11-07T07:46:42.109Z,100.00
2022-11-07T07:49:09.808Z,100.00
2022-11-07T07:51:37.211Z,100.00
2022-11-07T07:54:04.708Z,100.00
2022-11-07T07:56:32.200Z,100.00
2022-11-07T07:58:59.646Z,100.00
2022-11-07T08:01:28.492Z,99.72
2022-11-07T08:04:01.815Z,99.22
2022-11-07T08:06:30.086Z,99.09
2022-11-07T08:08:57.612Z,98.55
2022-11-07T08:11:25.052Z,98.74
2022-11-07T08:13:53.140Z,98.98
2022-11-07T08:16:22.674Z,98.39
2022-11-07T08:18:51.430Z,98.24
2022-11-07T08:21:18.867Z,97.62
2022-11-07T08:23:46.715Z,97.63
2022-11-07T08:26:14.159Z,97.38
2022-11-07T08:28:41.671Z,97.15
2022-11-07T08:31:11.852Z,97.47
2022-11-07T08:33:40.094Z,96.94
2022-11-07T08:36:09.589Z,97.20
2022-11-07T08:38:37.372Z,97.17
2022-11-07T08:41:05.785Z,96.91
2022-11-07T08:43:33.335Z,97.28
2022-11-07T08:46:00.966Z,97.10
2022-11-07T08:48:28.457Z,96.88
2022-11-07T08:50:59.437Z,97.03
2022-11-07T08:53:28.824Z,97.22
2022-11-07T08:56:02.232Z,97.17
2022-11-07T08:58:30.307Z,97.15
2022-11-07T09:00:58.129Z,96.65
2022-11-07T09:06:13.102Z,97.31
2022-11-07T09:08:41.870Z,97.38
2022-11-07T09:11:09.264Z,97.94
2022-11-07T09:13:36.807Z,97.69
2022-11-07T09:16:05.986Z,98.36
2022-11-07T09:18:34.211Z,98.33
2022-11-07T09:21:01.635Z,98.34
2022-11-07T09:23:29.282Z,98.33
2022-11-07T09:25:59.442Z,98.46
2022-11-07T09:28:26.855Z,98.51
2022-11-07T09:30:54.875Z,99.14
2022-11-07T09:33:22.406Z,98.78
2022-11-07T09:35:50.024Z,99.02
2022-11-07T09:38:17.997Z,98.55
2022-11-07T09:40:50.734Z,99.42
2022-11-07T09:43:31.375Z,99.21
2022-11-07T09:46:08.855Z,98.47
2022-11-07T09:48:44.387Z,99.26
2022-11-07T09:51:15.688Z,99.10
2022-11-07T09:53:48.024Z,99.41
2022-11-07T09:56:16.675Z,98.83
2022-11-07T09:58:51.398Z,99.59
2022-11-07T10:01:21.281Z,98.41
2022-11-07T10:04:18.182Z,99.20
2022-11-07T10:06:45.066Z,98.45
2022-11-07T10:09:17.612Z,98.37
2022-11-07T10:11:51.314Z,98.14
2022-11-07T10:14:30.484Z,96.93
2022-11-07T10:17:09.778Z,97.68
2022-11-07T10:19:49.789Z,97.67
2022-11-07T10:22:33.799Z,97.97
2022-11-07T10:25:19.716Z,97.94
2022-11-07T10:27:52.167Z,98.86
2022-11-07T10:30:22.137Z,98.42
2022-11-07T10:32:59.659Z,98.42
2022-11-07T10:35:30.277Z,98.23
2022-11-07T10:38:00.216Z,98.38
2022-11-07T10:40:35.135Z,98.63
2022-11-07T10:43:06.536Z,98.55
2022-11-07T10:45:38.366Z,98.80
2022-11-07T10:48:06.798Z,98.68
2022-11-07T10:50:34.309Z,98.44
2022-11-07T10:53:05.468Z,97.81
2022-11-07T10:55:44.174Z,97.71
2022-11-07T10:58:19.580Z,96.44
2022-11-07T11:00:58.670Z,97.41
2022-11-07T11:03:43.154Z,96.00
2022-11-07T11:06:21.482Z,96.49
2022-11-07T11:08:50.709Z,96.24
2022-11-07T11:11:27.926Z,97.31
2022-11-07T11:14:03.096Z,97.75
2022-11-07T11:16:36.282Z,97.53
2022-11-07T11:19:04.669Z,97.11
2022-11-07T11:21:43.054Z,97.71
2022-11-07T11:24:18.956Z,97.78
2022-11-07T11:26:48.493Z,97.87
2022-11-07T11:29:33.196Z,98.19
2022-11-07T11:32:05.674Z,97.84
2022-11-07T11:34:43.497Z,97.16
2022-11-07T11:37:15.583Z,97.93
2022-11-07T11:39:46.834Z,97.59
2022-11-07T11:42:26.373Z,96.48
2022-11-07T11:44:57.772Z,96.48
2022-11-07T11:47:34.509Z,96.14
2022-11-07T11:50:10.039Z,95.65
2022-11-07T11:52:37.910Z,95.30
2022-11-07T11:55:13.579Z,94.62
2022-11-07T11:57:47.955Z,94.91
2022-11-07T12:00:18.230Z,94.31
2022-11-07T12:02:53.033Z,93.76
2022-11-07T12:05:35.354Z,93.05
2022-11-07T12:08:20.496Z,92.24
2022-11-07T12:10:56.556Z,92.40
2022-11-07T12:13:31.881Z,91.66
2022-11-07T12:16:10.499Z,92.56
2022-11-07T12:18:46.936Z,91.99
2022-11-07T12:21:26.843Z,92.30
2022-11-07T12:24:10.312Z,90.95
2022-11-07T12:26:44.553Z,90.29
2022-11-07T12:29:24.458Z,89.68
2022-11-07T12:32:08.415Z,90.24
2022-11-07T12:34:50.009Z,90.50
2022-11-07T12:37:29.228Z,90.82
2022-11-07T12:40:07.630Z,91.34
2022-11-07T12:42:48.236Z,92.47
2022-11-07T12:45:25.714Z,93.27
2022-11-07T12:48:11.894Z,92.08
2022-11-07T12:50:51.439Z,92.87
2022-11-07T12:53:32.049Z,93.53
2022-11-07T12:56:06.943Z,93.70
2022-11-07T12:58:36.437Z,93.65
2022-11-07T13:01:05.394Z,94.04
2022-11-07T13:03:51.127Z,95.54
2022-11-07T13:06:26.671Z,95.19
2022-11-07T13:09:02.051Z,95.28
2022-11-07T13:11:37.466Z,93.98
2022-11-07T13:14:24.226Z,92.85
2022-11-07T13:17:03.903Z,92.23
2022-11-07T13:19:33.709Z,91.90
2022-11-07T13:22:05.684Z,90.54
2022-11-07T13:24:36.258Z,90.96
2022-11-07T13:27:15.262Z,91.33
2022-11-07T13:29:45.071Z,91.37
2022-11-07T13:32:14.243Z,91.33
2022-11-07T13:34:46.597Z,91.20
2022-11-07T13:37:20.400Z,90.29
2022-11-07T13:39:53.926Z,91.23
2022-11-07T13:42:23.342Z,91.12
2022-11-07T13:44:54.389Z,91.06
2022-11-07T13:47:29.412Z,90.74
2022-11-07T13:50:03.618Z,90.53
2022-11-07T13:52:38.219Z,89.98
2022-11-07T13:55:12.149Z,89.46
2022-11-07T13:57:42.819Z,90.05
2022-11-07T14:00:14.794Z,90.60
2022-11-07T14:02:52.268Z,90.62
2022-11-07T14:05:23.720Z,91.13
2022-11-07T14:07:55.787Z,90.86
2022-11-07T14:10:26.591Z,91.12
2022-11-07T14:13:02.314Z,91.64
2022-11-07T14:15:30.827Z,92.10
2022-11-07T14:17:58.546Z,91.96
2022-11-07T14:20:26.171Z,92.83
2022-11-07T14:22:56.799Z,93.11
2022-11-07T14:25:27.920Z,93.19
2022-11-07T14:27:55.360Z,93.41
2022-11-07T14:30:24.715Z,93.18
2022-11-07T14:32:53.835Z,92.88
2022-11-07T14:35:23.851Z,92.67
2022-11-07T14:37:51.375Z,92.11
2022-11-07T14:40:20.799Z,92.24
2022-11-07T14:42:48.998Z,92.66
2022-11-07T14:45:34.304Z,92.50
2022-11-07T14:48:07.418Z,92.63
2022-11-07T14:50:34.886Z,92.49
2022-11-07T14:53:06.456Z,92.23
2022-11-07T14:55:38.418Z,92.37
2022-11-07T14:58:07.252Z,92.45
2022-11-07T15:00:35.491Z,92.44
2022-11-07T15:03:03.260Z,91.99
2022-11-07T15:05:32.541Z,91.47
2022-11-07T15:08:00.889Z,90.90
2022-11-07T15:10:32.654Z,90.74
2022-11-07T15:13:03.264Z,91.39
2022-11-07T15:15:32.655Z,91.50
2022-11-07T15:18:02.491Z,92.21
2022-11-07T15:20:35.994Z,92.24
2022-11-07T15:23:05.668Z,91.71
2022-11-07T15:25:35.857Z,91.93
2022-11-07T15:28:19.909Z,92.35
2022-11-07T15:30:48.369Z,92.48
2022-11-07T15:33:17.992Z,92.57
2022-11-07T15:35:46.919Z,93.04
2022-11-07T15:38:19.418Z,93.25
2022-11-07T15:40:47.497Z,92.92
2022-11-07T15:43:16.512Z,92.91
2022-11-07T15:45:44.465Z,92.39
2022-11-07T15:48:18.242Z,92.62
2022-11-07T15:50:48.537Z,92.73
2022-11-07T15:53:19.275Z,92.45
2022-11-07T15:55:46.868Z,92.83
2022-11-07T15:58:17.156Z,92.63
2022-11-07T16:00:44.777Z,93.01
2022-11-07T16:03:16.249Z,93.20
2022-11-07T16:05:45.362Z,93.11
2022-11-07T16:08:15.810Z,92.94
2022-11-07T16:10:46.606Z,93.12
2022-11-07T16:13:14.407Z,92.93
2022-11-07T16:15:46.605Z,93.04
2022-11-07T16:18:19.162Z,93.05
2022-11-07T16:20:48.129Z,93.20
2022-11-07T16:23:15.994Z,93.38
2022-11-07T16:25:46.035Z,93.26
2022-11-07T16:28:24.191Z,93.12
2022-11-07T16:30:53.711Z,93.12
2022-11-07T16:33:21.520Z,93.37
2022-11-07T16:35:50.150Z,93.45
2022-11-07T16:38:19.275Z,93.54
2022-11-07T16:40:47.581Z,93.63
2022-11-07T16:43:15.065Z,93.76
2022-11-07T16:45:46.262Z,93.86
2022-11-07T16:48:20.447Z,93.93
2022-11-07T16:50:48.344Z,93.60
2022-11-07T16:53:16.135Z,93.78
2022-11-07T16:55:50.733Z,93.91
2022-11-07T16:58:27.872Z,94.05
2022-11-07T17:00:57.275Z,94.10
2022-11-07T17:03:26.296Z,93.61
2022-11-07T17:05:55.526Z,93.60
2022-11-07T17:08:25.646Z,93.55
2022-11-07T17:10:53.177Z,94.00
2022-11-07T17:13:22.902Z,94.21
2022-11-07T17:15:50.940Z,94.10
2022-11-07T17:18:20.604Z,94.35
2022-11-07T17:20:51.999Z,94.98
2022-11-07T17:23:22.877Z,95.41
2022-11-07T17:25:54.799Z,95.61
2022-11-07T17:28:23.187Z,95.59
2022-11-07T17:30:50.689Z,95.96
2022-11-07T17:33:18.101Z,96.26
2022-11-07T17:35:45.642Z,96.25
2022-11-07T17:38:17.470Z,96.25
2022-11-07T17:40:45.375Z,96.30
2022-11-07T17:43:12.879Z,96.40
2022-11-07T17:45:41.163Z,96.70
2022-11-07T17:48:10.657Z,96.24
2022-11-07T17:50:38.730Z,96.12
2022-11-07T17:53:06.207Z,95.97
2022-11-07T17:55:34.950Z,95.68
2022-11-07T17:58:02.404Z,95.74
2022-11-07T18:00:30.327Z,95.48
2022-11-07T18:02:57.954Z,95.87
2022-11-07T18:05:31.878Z,95.83
2022-11-07T18:08:00.527Z,95.80
2022-11-07T18:10:29.346Z,95.19
2022-11-07T18:12:58.673Z,95.43
2022-11-07T18:15:26.127Z,95.08
2022-11-07T18:17:53.573Z,95.32
2022-11-07T18:20:21.035Z,94.55
2022-11-07T18:22:48.495Z,94.33
2022-11-07T18:25:16.001Z,94.21
2022-11-07T18:27:43.435Z,94.21
2022-11-07T18:30:13.781Z,94.20
2022-11-07T18:32:41.982Z,93.70
2022-11-07T18:35:09.906Z,93.38
2022-11-07T18:37:37.338Z,93.35
2022-11-07T18:40:06.049Z,93.69
2022-11-07T18:42:33.582Z,93.68
2022-11-07T18:45:01.062Z,94.15
2022-11-07T18:47:30.426Z,94.09
2022-11-07T18:49:57.857Z,94.17
2022-11-07T18:52:25.412Z,94.07
2022-11-07T18:54:52.905Z,94.10
2022-11-07T18:57:20.349Z,94.17
2022-11-07T18:59:47.819Z,94.00
2022-11-07T19:02:15.575Z,94.47
2022-11-07T19:04:44.754Z,94.29
2022-11-07T19:07:12.278Z,94.05
2022-11-07T19:09:39.811Z,93.47
2022-11-07T19:12:07.888Z,93.97
2022-11-07T19:14:35.928Z,93.57
2022-11-07T19:17:04.749Z,93.60
2022-11-07T19:19:33.547Z,93.90
2022-11-07T19:22:02.387Z,93.88
2022-11-07T19:24:29.835Z,93.91
2022-11-07T19:26:57.261Z,93.67
2022-11-07T19:29:25.752Z,94.08
2022-11-07T19:31:53.247Z,93.99
2022-11-07T19:34:21.017Z,93.58
2022-11-07T19:36:48.466Z,93.62
2022-11-07T19:39:17.285Z,93.82
2022-11-07T19:41:44.731Z,93.76
2022-11-07T19:44:12.200Z,92.99
2022-11-07T19:46:39.662Z,93.36
2022-11-07T19:49:07.194Z,93.61
2022-11-07T19:51:36.139Z,93.73
2022-11-07T19:54:04.306Z,93.82
2022-11-07T19:56:33.328Z,93.89
2022-11-07T19:59:02.134Z,94.04
2022-11-07T20:01:32.267Z,93.90
2022-11-07T20:04:00.722Z,93.72
2022-11-07T20:06:31.269Z,93.58
2022-11-07T20:08:58.789Z,94.02
2022-11-07T20:11:27.453Z,94.14
2022-11-07T20:14:02.747Z,94.12
2022-11-07T20:16:31.686Z,94.30
2022-11-07T20:18:59.281Z,94.50
2022-11-07T20:21:28.811Z,94.62
2022-11-07T20:23:57.344Z,94.83
2022-11-07T20:26:28.891Z,94.55
2022-11-07T20:28:58.478Z,94.33
2022-11-07T20:31:28.014Z,94.58
2022-11-07T20:33:58.707Z,94.42
2022-11-07T20:36:26.397Z,94.03
2022-11-07T20:38:55.260Z,94.11
2022-11-07T20:41:23.582Z,94.29
2022-11-07T20:43:53.968Z,93.84
2022-11-07T20:46:22.774Z,93.52
2022-11-07T20:48:50.272Z,93.31
2022-11-07T20:51:20.704Z,92.82
2022-11-07T20:53:50.661Z,92.25
2022-11-07T20:56:18.990Z,92.46
2022-11-07T20:58:47.412Z,92.18
2022-11-07T21:01:18.005Z,92.46
2022-11-07T21:03:47.367Z,92.60
2022-11-07T21:06:15.564Z,92.47
2022-11-07T21:08:45.440Z,92.77
2022-11-07T21:11:14.403Z,92.72
2022-11-07T21:13:45.421Z,92.96
2022-11-07T21:16:15.664Z,92.78
2022-11-07T21:18:43.105Z,92.67
2022-11-07T21:21:15.159Z,92.52
2022-11-07T21:23:43.133Z,92.30
2022-11-07T21:26:12.176Z,92.43
2022-11-07T21:28:40.380Z,92.22
2022-11-07T21:31:10.868Z,91.84
2022-11-07T21:33:38.761Z,91.77
2022-11-07T21:36:09.731Z,90.93
2022-11-07T21:38:38.763Z,91.04
2022-11-07T21:41:06.868Z,90.53
2022-11-07T21:43:34.489Z,91.06
2022-11-07T21:46:09.939Z,91.09
2022-11-07T21:48:37.461Z,91.05
2022-11-07T21:51:06.392Z,91.17
2022-11-07T21:53:37.786Z,91.00
2022-11-07T21:56:07.880Z,90.88
2022-11-07T21:58:35.768Z,91.09
2022-11-07T22:01:04.665Z,90.91
2022-11-07T22:04:03.659Z,90.57
2022-11-07T22:06:21.539Z,90.59
2022-11-07T22:08:51.438Z,90.42
2022-11-07T22:11:20.662Z,90.63
2022-11-07T22:13:48.111Z,90.78
2022-11-07T22:16:17.979Z,90.76
2022-11-07T22:18:45.791Z,90.92
2022-11-07T22:21:19.119Z,91.09
2022-11-07T22:23:46.673Z,91.54
2022-11-07T22:26:15.892Z,91.68
2022-11-07T22:28:46.230Z,91.92
2022-11-07T22:31:16.416Z,91.93
2022-11-07T22:33:44.263Z,92.05
2022-11-07T22:36:12.910Z,91.92
2022-11-07T22:38:41.411Z,92.38
2022-11-07T22:41:11.357Z,92.72
2022-11-07T22:43:39.209Z,92.86
2022-11-07T22:46:11.233Z,92.99
2022-11-07T22:48:39.202Z,93.29
2022-11-07T22:51:08.883Z,93.49
2022-11-07T22:53:36.739Z,93.47
2022-11-07T22:56:08.524Z,94.09
2022-11-07T22:58:36.168Z,94.30
2022-11-07T23:01:03.733Z,94.38
2022-11-07T23:03:33.575Z,94.33
2022-11-07T23:06:03.439Z,94.52
2022-11-07T23:08:31.081Z,94.83
2022-11-07T23:11:14.362Z,94.94
2022-11-07T23:13:47.227Z,95.37
2022-11-07T23:16:22.065Z,95.57
2022-11-07T23:18:50.913Z,95.72
2022-11-07T23:21:18.874Z,95.33
2022-11-07T23:23:46.438Z,95.61
2022-11-07T23:26:16.455Z,95.19
2022-11-07T23:28:44.162Z,94.87
2022-11-07T23:31:12.961Z,94.72
2022-11-07T23:33:40.835Z,94.74
2022-11-07T23:36:12.709Z,94.58
2022-11-07T23:38:40.159Z,94.64
2022-11-07T23:41:09.952Z,94.76
2022-11-07T23:43:37.378Z,94.98
2022-11-07T23:46:23.607Z,94.34
2022-11-07T23:49:14.233Z,94.18
2022-11-07T23:51:43.693Z,94.11
2022-11-07T23:54:28.623Z,94.18
2022-11-07T23:56:56.100Z,94.33
2022-11-07T23:59:41.985Z,94.47
